METAR AND TAF INFORMATION
METAR FOR KLAS
KLAS 230527Z 20008KT 10SM FEW110 BKN190 BKN220 37/13 A2987 RMK AO2 LTG DSNT W T03720128 $
KLAS 230456Z 19007KT 10SM FEW110 BKN190 BKN220 37/13 A2987 RMK AO2 LTG DSNT W SLP044 T03720133 $
KLAS 230447Z VRB06KT 10SM FEW110 BKN190 BKN220 37/14 A2987 RMK AO2 LTG DSNT SE AND NW T03670144 $
KLAS 230356Z 15008G23KT 10SM SCT110 BKN180 BKN220 36/14 A2985 RMK AO2 PK WND 14027/0336 WSHFT 0303 LTG DSNT SE AND S TSE43 PRESRR SLP038 TS MOVD SE OCNL LTGICCCCG DSNT SE T03610144 $
KLAS 230343Z 14014G27KT 10SM SCT110 SCT180 BKN220 37/13 A2983 RMK AO2 PK WND 14027/0336 WSHFT 0303 LTG DSNT SE AND S TSE43 PRESRR TS MOVD SE OCNL LTGICCCCG DSNT SE T03720133 $
KLAS 230323Z 11016G25KT 10SM TS SCT110CB SCT180 BKN220 38/13 A2980 RMK AO2 WSHFT 0303 LTG DSNT E AND SE OCNL LTGICCCCG NE-SE TS NE-SE MOV E VCSH NE-SE T03780128 $
KLAS 230256Z 00000KT 10SM TS SCT110CB SCT180 BKN220 40/11 A2980 RMK AO2 LTG DSNT E AND SE TSB56 SLP022 OCNL LTGICCCCG NE-SE TS NE-SE MOV E VCSH NE-SE T04000106 51006 $
KLAS 230602Z 2306/2412 31010KT P6SM VCSH SCT110 BKN150
FM230800 20007KT P6SM FEW120 BKN150
FM231200 VRB05KT P6SM FEW100 BKN150
FM231900 08006KT P6SM FEW100 SCT150
FM232200 23008KT P6SM VCTS SCT100CB SCT150
FM240200 21008KT P6SM FEW100 SCT150

 AIRPORT MAP

 RUNWAY INFORMATION
Runway 01L Runway length 8985 ft Runway width 150 ft
Runway elevation 2176 ft Runway displaced threshold 584 ft Runway heading 25
Runway 19R Runway length 8985 ft Runway width 150 ft
Runway elevation 2083 ft Runway displaced threshold 0 ft Runway heading 205
Runway 01R Runway length 9775 ft Runway width 150 ft
Runway elevation 2170 ft Runway displaced threshold 491 ft Runway heading 25
Runway 19L Runway length 9775 ft Runway width 150 ft
Runway elevation 2080 ft Runway displaced threshold 878 ft Runway heading 205
Runway 07L Runway length 14510 ft Runway width 150 ft
Runway elevation 2155 ft Runway displaced threshold 2139 ft Runway heading 90
Runway 25R Runway length 14510 ft Runway width 150 ft
Runway elevation 2044 ft Runway displaced threshold 1397 ft Runway heading 270
Runway 07R Runway length 10526 ft Runway width 150 ft
Runway elevation 2157 ft Runway displaced threshold 0 ft Runway heading 90
Runway 25L Runway length 10526 ft Runway width 150 ft
Runway elevation 2048 ft Runway displaced threshold 0 ft Runway heading 270

 AIRPORT FREQUENCIES
Type APP Name LAS VEGAS Frequency 125.025 MHZ
Type ATIS Name ATIS Frequency 132.4 MHZ
Type CLD Name CLNC DEL Frequency 118 MHZ
Type DEP Name LAS VEGAS Frequency 125.02 MHZ
Type GND Name GND Frequency 121.1 MHZ
Type UNIC Name UNICOM Frequency 122.95 MHZ
Type TWR Name Frequency 119.9 MHZ

 AIRPORT NEAR NAVIGATION AIDS
Type VORTAC Name Las Vegas Frequency 116900 KHZ

-